sensor_id;sensor_type;location;lat;lon;timestamp;temperature;humidity
71801;HTU21D;59647;55.838;37.292;2023-08-24T00:01:17;16.86;92.79
71801;HTU21D;59647;55.838;37.292;2023-08-24T00:03:46;16.86;93.25
71801;HTU21D;59647;55.838;37.292;2023-08-24T00:06:13;16.87;92.46
71801;HTU21D;59647;55.838;37.292;2023-08-24T00:08:39;16.89;92.66
71801;HTU21D;59647;55.838;37.292;2023-08-24T00:11:05;16.92;92.34
71801;HTU21D;59647;55.838;37.292;2023-08-24T00:13:32;16.92;92.36
71801;HTU21D;59647;55.838;37.292;2023-08-24T00:15:58;16.90;92.92
71801;HTU21D;59647;55.838;37.292;2023-08-24T00:18:24;16.90;92.70
71801;HTU21D;59647;55.838;37.292;2023-08-24T00:20:50;16.94;92.16
71801;HTU21D;59647;55.838;37.292;2023-08-24T00:23:17;16.95;92.01
71801;HTU21D;59647;55.838;37.292;2023-08-24T00:25:44;16.96;91.88
71801;HTU21D;59647;55.838;37.292;2023-08-24T00:28:10;16.98;91.55
71801;HTU21D;59647;55.838;37.292;2023-08-24T00:30:36;17.00;90.96
71801;HTU21D;59647;55.838;37.292;2023-08-24T00:33:02;16.96;92.17
71801;HTU21D;59647;55.838;37.292;2023-08-24T00:35:28;16.96;91.97
71801;HTU21D;59647;55.838;37.292;2023-08-24T00:37:55;16.98;91.99
71801;HTU21D;59647;55.838;37.292;2023-08-24T00:40:21;16.98;92.26
71801;HTU21D;59647;55.838;37.292;2023-08-24T00:42:47;16.99;91.83
71801;HTU21D;59647;55.838;37.292;2023-08-24T00:45:13;17.01;91.78
71801;HTU21D;59647;55.838;37.292;2023-08-24T00:47:45;17.01;91.77
71801;HTU21D;59647;55.838;37.292;2023-08-24T00:50:12;17.01;91.56
71801;HTU21D;59647;55.838;37.292;2023-08-24T00:52:41;17.00;91.67
71801;HTU21D;59647;55.838;37.292;2023-08-24T00:55:08;16.99;91.70
71801;HTU21D;59647;55.838;37.292;2023-08-24T00:57:35;16.98;91.79
71801;HTU21D;59647;55.838;37.292;2023-08-24T01:00:05;16.92;91.89
71801;HTU21D;59647;55.838;37.292;2023-08-24T01:02:33;16.88;91.85
71801;HTU21D;59647;55.838;37.292;2023-08-24T01:05:00;16.84;91.70
71801;HTU21D;59647;55.838;37.292;2023-08-24T01:07:26;16.80;91.53
71801;HTU21D;59647;55.838;37.292;2023-08-24T01:09:52;16.74;91.60
71801;HTU21D;59647;55.838;37.292;2023-08-24T01:15:14;16.63;92.56
71801;HTU21D;59647;55.838;37.292;2023-08-24T01:17:43;16.59;92.00
71801;HTU21D;59647;55.838;37.292;2023-08-24T01:20:10;16.60;92.09
71801;HTU21D;59647;55.838;37.292;2023-08-24T01:28:01;16.65;91.49
71801;HTU21D;59647;55.838;37.292;2023-08-24T01:30:28;16.63;91.16
71801;HTU21D;59647;55.838;37.292;2023-08-24T01:32:56;16.62;90.81
71801;HTU21D;59647;55.838;37.292;2023-08-24T01:35:22;16.59;90.80
71801;HTU21D;59647;55.838;37.292;2023-08-24T01:37:50;16.59;91.85
71801;HTU21D;59647;55.838;37.292;2023-08-24T01:43:05;16.60;91.79
71801;HTU21D;59647;55.838;37.292;2023-08-24T01:45:33;16.61;91.75
71801;HTU21D;59647;55.838;37.292;2023-08-24T01:48:02;16.63;92.07
71801;HTU21D;59647;55.838;37.292;2023-08-24T01:50:33;16.65;91.67
71801;HTU21D;59647;55.838;37.292;2023-08-24T01:53:00;16.62;91.52
71801;HTU21D;59647;55.838;37.292;2023-08-24T01:55:26;16.63;91.87
71801;HTU21D;59647;55.838;37.292;2023-08-24T01:57:55;16.61;91.92
71801;HTU21D;59647;55.838;37.292;2023-08-24T02:00:21;16.61;92.05
71801;HTU21D;59647;55.838;37.292;2023-08-24T02:02:47;16.61;92.18
71801;HTU21D;59647;55.838;37.292;2023-08-24T02:05:13;16.63;91.50
71801;HTU21D;59647;55.838;37.292;2023-08-24T02:07:39;16.57;92.23
71801;HTU21D;59647;55.838;37.292;2023-08-24T02:10:07;16.58;92.68
71801;HTU21D;59647;55.838;37.292;2023-08-24T02:12:34;16.56;92.11
71801;HTU21D;59647;55.838;37.292;2023-08-24T02:15:00;16.57;91.63
71801;HTU21D;59647;55.838;37.292;2023-08-24T02:17:26;16.57;92.25
71801;HTU21D;59647;55.838;37.292;2023-08-24T02:19:52;16.54;92.33
71801;HTU21D;59647;55.838;37.292;2023-08-24T02:22:18;16.55;91.66
71801;HTU21D;59647;55.838;37.292;2023-08-24T02:24:44;16.50;91.47
71801;HTU21D;59647;55.838;37.292;2023-08-24T02:27:10;16.45;91.27
71801;HTU21D;59647;55.838;37.292;2023-08-24T02:29:36;16.40;91.66
71801;HTU21D;59647;55.838;37.292;2023-08-24T02:32:03;16.37;91.82
71801;HTU21D;59647;55.838;37.292;2023-08-24T02:34:29;16.33;92.19
71801;HTU21D;59647;55.838;37.292;2023-08-24T02:36:57;16.30;93.31
71801;HTU21D;59647;55.838;37.292;2023-08-24T02:39:23;16.28;93.22
71801;HTU21D;59647;55.838;37.292;2023-08-24T02:41:49;16.26;94.49
71801;HTU21D;59647;55.838;37.292;2023-08-24T02:44:15;16.27;93.92
71801;HTU21D;59647;55.838;37.292;2023-08-24T02:46:44;16.27;94.83
71801;HTU21D;59647;55.838;37.292;2023-08-24T02:49:10;16.25;93.73
71801;HTU21D;59647;55.838;37.292;2023-08-24T02:51:36;16.26;93.68
71801;HTU21D;59647;55.838;37.292;2023-08-24T02:54:04;16.21;94.18
71801;HTU21D;59647;55.838;37.292;2023-08-24T02:56:30;16.21;94.00
71801;HTU21D;59647;55.838;37.292;2023-08-24T02:58:55;16.19;93.96
71801;HTU21D;59647;55.838;37.292;2023-08-24T03:01:21;16.20;93.40
71801;HTU21D;59647;55.838;37.292;2023-08-24T03:03:47;16.17;93.73
71801;HTU21D;59647;55.838;37.292;2023-08-24T03:06:13;16.17;93.93
71801;HTU21D;59647;55.838;37.292;2023-08-24T03:08:39;16.16;93.30
71801;HTU21D;59647;55.838;37.292;2023-08-24T03:11:06;16.17;93.15
71801;HTU21D;59647;55.838;37.292;2023-08-24T03:13:37;16.14;94.46
71801;HTU21D;59647;55.838;37.292;2023-08-24T03:16:08;16.15;93.90
71801;HTU21D;59647;55.838;37.292;2023-08-24T03:18:35;16.16;93.56
71801;HTU21D;59647;55.838;37.292;2023-08-24T03:21:03;16.21;94.23
71801;HTU21D;59647;55.838;37.292;2023-08-24T03:23:29;16.24;94.27
71801;HTU21D;59647;55.838;37.292;2023-08-24T03:25:55;16.27;93.16
71801;HTU21D;59647;55.838;37.292;2023-08-24T03:28:22;16.28;93.39
71801;HTU21D;59647;55.838;37.292;2023-08-24T03:30:50;16.29;94.80
71801;HTU21D;59647;55.838;37.292;2023-08-24T03:33:16;16.27;94.80
71801;HTU21D;59647;55.838;37.292;2023-08-24T03:35:42;16.29;95.18
71801;HTU21D;59647;55.838;37.292;2023-08-24T03:38:09;16.29;93.35
71801;HTU21D;59647;55.838;37.292;2023-08-24T03:40:35;16.30;93.37
71801;HTU21D;59647;55.838;37.292;2023-08-24T03:43:02;16.29;94.69
71801;HTU21D;59647;55.838;37.292;2023-08-24T03:45:28;16.33;92.94
71801;HTU21D;59647;55.838;37.292;2023-08-24T03:47:54;16.31;93.72
71801;HTU21D;59647;55.838;37.292;2023-08-24T03:50:20;16.32;94.61
71801;HTU21D;59647;55.838;37.292;2023-08-24T03:52:51;16.37;93.79
71801;HTU21D;59647;55.838;37.292;2023-08-24T03:55:20;16.41;93.89
71801;HTU21D;59647;55.838;37.292;2023-08-24T03:57:47;16.47;93.43
71801;HTU21D;59647;55.838;37.292;2023-08-24T04:00:13;16.49;93.62
71801;HTU21D;59647;55.838;37.292;2023-08-24T04:02:41;16.51;93.80
71801;HTU21D;59647;55.838;37.292;2023-08-24T04:05:09;16.56;94.32
71801;HTU21D;59647;55.838;37.292;2023-08-24T04:07:36;16.62;93.85
71801;HTU21D;59647;55.838;37.292;2023-08-24T04:10:04;16.66;94.47
71801;HTU21D;59647;55.838;37.292;2023-08-24T04:12:32;16.71;94.25
71801;HTU21D;59647;55.838;37.292;2023-08-24T04:14:58;16.75;94.06
71801;HTU21D;59647;55.838;37.292;2023-08-24T04:17:25;16.80;94.27
71801;HTU21D;59647;55.838;37.292;2023-08-24T04:19:51;16.87;94.01
71801;HTU21D;59647;55.838;37.292;2023-08-24T04:22:19;16.94;93.74
71801;HTU21D;59647;55.838;37.292;2023-08-24T04:24:44;17.02;93.65
71801;HTU21D;59647;55.838;37.292;2023-08-24T04:27:10;17.06;93.36
71801;HTU21D;59647;55.838;37.292;2023-08-24T04:29:37;17.17;93.15
71801;HTU21D;59647;55.838;37.292;2023-08-24T04:32:03;17.24;92.95
71801;HTU21D;59647;55.838;37.292;2023-08-24T04:34:29;17.32;92.82
71801;HTU21D;59647;55.838;37.292;2023-08-24T04:36:55;17.37;92.43
71801;HTU21D;59647;55.838;37.292;2023-08-24T04:39:21;17.44;92.12
71801;HTU21D;59647;55.838;37.292;2023-08-24T04:41:46;17.49;91.82
71801;HTU21D;59647;55.838;37.292;2023-08-24T04:44:12;17.47;91.58
71801;HTU21D;59647;55.838;37.292;2023-08-24T04:46:38;17.48;91.40
71801;HTU21D;59647;55.838;37.292;2023-08-24T04:49:04;17.49;91.28
71801;HTU21D;59647;55.838;37.292;2023-08-24T04:51:30;17.48;91.28
71801;HTU21D;59647;55.838;37.292;2023-08-24T04:53:56;17.45;91.15
71801;HTU21D;59647;55.838;37.292;2023-08-24T04:56:22;17.43;91.18
71801;HTU21D;59647;55.838;37.292;2023-08-24T04:58:58;17.40;91.37
71801;HTU21D;59647;55.838;37.292;2023-08-24T05:01:26;17.43;91.25
71801;HTU21D;59647;55.838;37.292;2023-08-24T05:03:53;17.49;91.23
71801;HTU21D;59647;55.838;37.292;2023-08-24T05:06:20;17.54;90.70
71801;HTU21D;59647;55.838;37.292;2023-08-24T05:08:46;17.52;90.73
71801;HTU21D;59647;55.838;37.292;2023-08-24T05:11:20;17.53;90.64
71801;HTU21D;59647;55.838;37.292;2023-08-24T05:13:46;17.53;90.63
71801;HTU21D;59647;55.838;37.292;2023-08-24T05:16:13;17.50;90.48
71801;HTU21D;59647;55.838;37.292;2023-08-24T05:18:39;17.52;90.73
71801;HTU21D;59647;55.838;37.292;2023-08-24T05:21:05;17.53;90.76
71801;HTU21D;59647;55.838;37.292;2023-08-24T05:23:33;17.59;90.88
71801;HTU21D;59647;55.838;37.292;2023-08-24T05:26:00;17.66;90.76
71801;HTU21D;59647;55.838;37.292;2023-08-24T05:28:26;17.67;90.48
71801;HTU21D;59647;55.838;37.292;2023-08-24T05:30:53;17.75;90.39
71801;HTU21D;59647;55.838;37.292;2023-08-24T05:33:20;17.78;90.47
71801;HTU21D;59647;55.838;37.292;2023-08-24T05:35:46;17.83;90.34
71801;HTU21D;59647;55.838;37.292;2023-08-24T05:38:15;17.90;90.41
71801;HTU21D;59647;55.838;37.292;2023-08-24T05:40:47;17.98;89.95
71801;HTU21D;59647;55.838;37.292;2023-08-24T05:43:13;18.09;89.74
71801;HTU21D;59647;55.838;37.292;2023-08-24T05:45:40;18.23;89.50
71801;HTU21D;59647;55.838;37.292;2023-08-24T05:48:07;18.33;89.17
71801;HTU21D;59647;55.838;37.292;2023-08-24T05:50:33;18.35;88.76
71801;HTU21D;59647;55.838;37.292;2023-08-24T05:52:59;18.33;88.69
71801;HTU21D;59647;55.838;37.292;2023-08-24T05:55:25;18.29;88.52
71801;HTU21D;59647;55.838;37.292;2023-08-24T05:57:51;18.17;88.06
71801;HTU21D;59647;55.838;37.292;2023-08-24T06:00:17;17.95;87.62
71801;HTU21D;59647;55.838;37.292;2023-08-24T06:02:43;17.84;88.43
71801;HTU21D;59647;55.838;37.292;2023-08-24T06:05:09;17.76;88.52
71801;HTU21D;59647;55.838;37.292;2023-08-24T06:07:36;17.68;88.33
71801;HTU21D;59647;55.838;37.292;2023-08-24T06:10:03;17.59;88.48
71801;HTU21D;59647;55.838;37.292;2023-08-24T06:12:32;17.49;88.71
71801;HTU21D;59647;55.838;37.292;2023-08-24T06:14:58;17.47;88.69
71801;HTU21D;59647;55.838;37.292;2023-08-24T06:17:24;17.45;88.67
71801;HTU21D;59647;55.838;37.292;2023-08-24T06:19:50;17.46;88.98
71801;HTU21D;59647;55.838;37.292;2023-08-24T06:22:15;17.43;89.09
71801;HTU21D;59647;55.838;37.292;2023-08-24T06:24:41;17.35;89.10
71801;HTU21D;59647;55.838;37.292;2023-08-24T06:27:07;17.33;88.96
71801;HTU21D;59647;55.838;37.292;2023-08-24T06:29:34;17.29;89.44
71801;HTU21D;59647;55.838;37.292;2023-08-24T06:32:00;17.16;89.41
71801;HTU21D;59647;55.838;37.292;2023-08-24T06:34:26;17.11;89.56
71801;HTU21D;59647;55.838;37.292;2023-08-24T06:36:53;17.07;90.38
71801;HTU21D;59647;55.838;37.292;2023-08-24T06:39:18;17.06;89.76
71801;HTU21D;59647;55.838;37.292;2023-08-24T06:41:45;17.09;89.71
71801;HTU21D;59647;55.838;37.292;2023-08-24T06:44:11;17.03;90.17
71801;HTU21D;59647;55.838;37.292;2023-08-24T06:46:37;17.01;89.69
71801;HTU21D;59647;55.838;37.292;2023-08-24T06:49:02;16.95;90.60
71801;HTU21D;59647;55.838;37.292;2023-08-24T06:51:28;16.92;90.09
71801;HTU21D;59647;55.838;37.292;2023-08-24T06:53:55;16.94;89.85
71801;HTU21D;59647;55.838;37.292;2023-08-24T06:56:20;16.90;90.79
71801;HTU21D;59647;55.838;37.292;2023-08-24T06:58:48;16.89;90.51
71801;HTU21D;59647;55.838;37.292;2023-08-24T07:01:13;16.91;89.95
71801;HTU21D;59647;55.838;37.292;2023-08-24T07:03:40;16.90;90.35
71801;HTU21D;59647;55.838;37.292;2023-08-24T07:06:06;16.76;90.50
71801;HTU21D;59647;55.838;37.292;2023-08-24T07:08:37;16.65;90.48
71801;HTU21D;59647;55.838;37.292;2023-08-24T07:11:03;16.60;90.15
71801;HTU21D;59647;55.838;37.292;2023-08-24T07:13:29;16.55;91.56
71801;HTU21D;59647;55.838;37.292;2023-08-24T07:15:55;16.57;91.03
71801;HTU21D;59647;55.838;37.292;2023-08-24T07:18:21;16.54;91.31
71801;HTU21D;59647;55.838;37.292;2023-08-24T07:20:47;16.57;91.22
71801;HTU21D;59647;55.838;37.292;2023-08-24T07:23:14;16.57;91.12
71801;HTU21D;59647;55.838;37.292;2023-08-24T07:25:40;16.59;90.76
71801;HTU21D;59647;55.838;37.292;2023-08-24T07:28:07;16.59;90.63
71801;HTU21D;59647;55.838;37.292;2023-08-24T07:30:35;16.52;90.39
71801;HTU21D;59647;55.838;37.292;2023-08-24T07:33:02;16.54;90.21
71801;HTU21D;59647;55.838;37.292;2023-08-24T07:35:31;16.51;90.95
71801;HTU21D;59647;55.838;37.292;2023-08-24T07:37:57;16.59;90.59
71801;HTU21D;59647;55.838;37.292;2023-08-24T07:40:24;16.61;90.46
71801;HTU21D;59647;55.838;37.292;2023-08-24T07:42:54;16.58;90.33
71801;HTU21D;59647;55.838;37.292;2023-08-24T07:45:23;16.57;90.23
71801;HTU21D;59647;55.838;37.292;2023-08-24T07:47:49;16.55;90.05
71801;HTU21D;59647;55.838;37.292;2023-08-24T07:50:15;16.49;90.74
71801;HTU21D;59647;55.838;37.292;2023-08-24T07:52:42;16.49;89.92
71801;HTU21D;59647;55.838;37.292;2023-08-24T07:55:08;16.45;90.57
71801;HTU21D;59647;55.838;37.292;2023-08-24T07:57:36;16.48;90.19
71801;HTU21D;59647;55.838;37.292;2023-08-24T08:00:05;16.49;90.37
71801;HTU21D;59647;55.838;37.292;2023-08-24T08:02:38;16.54;90.37
71801;HTU21D;59647;55.838;37.292;2023-08-24T08:05:05;16.59;89.87
71801;HTU21D;59647;55.838;37.292;2023-08-24T08:07:33;16.59;89.72
71801;HTU21D;59647;55.838;37.292;2023-08-24T08:09:59;16.62;89.99
71801;HTU21D;59647;55.838;37.292;2023-08-24T08:12:25;16.70;89.96
71801;HTU21D;59647;55.838;37.292;2023-08-24T08:14:51;16.66;90.08
71801;HTU21D;59647;55.838;37.292;2023-08-24T08:17:16;16.73;89.83
71801;HTU21D;59647;55.838;37.292;2023-08-24T08:19:42;16.86;89.68
71801;HTU21D;59647;55.838;37.292;2023-08-24T08:22:08;16.92;88.97
71801;HTU21D;59647;55.838;37.292;2023-08-24T08:24:34;16.93;88.86
71801;HTU21D;59647;55.838;37.292;2023-08-24T08:27:00;16.95;88.40
71801;HTU21D;59647;55.838;37.292;2023-08-24T08:29:26;16.93;88.62
71801;HTU21D;59647;55.838;37.292;2023-08-24T08:31:52;16.96;88.56
71801;HTU21D;59647;55.838;37.292;2023-08-24T08:34:17;16.98;88.71
71801;HTU21D;59647;55.838;37.292;2023-08-24T08:36:43;17.07;88.74
71801;HTU21D;59647;55.838;37.292;2023-08-24T08:39:09;16.98;87.63
71801;HTU21D;59647;55.838;37.292;2023-08-24T08:41:42;16.95;87.85
71801;HTU21D;59647;55.838;37.292;2023-08-24T08:44:11;16.95;88.29
71801;HTU21D;59647;55.838;37.292;2023-08-24T08:46:40;16.88;88.25
71801;HTU21D;59647;55.838;37.292;2023-08-24T08:49:07;16.87;88.01
71801;HTU21D;59647;55.838;37.292;2023-08-24T08:51:37;16.84;88.17
71801;HTU21D;59647;55.838;37.292;2023-08-24T08:54:04;16.89;88.29
71801;HTU21D;59647;55.838;37.292;2023-08-24T08:56:34;16.96;88.30
71801;HTU21D;59647;55.838;37.292;2023-08-24T08:59:02;17.04;88.28
71801;HTU21D;59647;55.838;37.292;2023-08-24T09:01:29;17.09;87.92
71801;HTU21D;59647;55.838;37.292;2023-08-24T09:03:57;17.16;88.05
71801;HTU21D;59647;55.838;37.292;2023-08-24T09:06:23;17.28;87.93
71801;HTU21D;59647;55.838;37.292;2023-08-24T09:08:49;17.36;87.87
71801;HTU21D;59647;55.838;37.292;2023-08-24T09:11:18;17.36;88.50
71801;HTU21D;59647;55.838;37.292;2023-08-24T09:13:46;17.51;87.39
71801;HTU21D;59647;55.838;37.292;2023-08-24T09:16:12;17.50;87.35
71801;HTU21D;59647;55.838;37.292;2023-08-24T09:18:43;17.40;87.51
71801;HTU21D;59647;55.838;37.292;2023-08-24T09:21:15;17.23;85.64
71801;HTU21D;59647;55.838;37.292;2023-08-24T09:23:45;16.99;85.55
71801;HTU21D;59647;55.838;37.292;2023-08-24T09:26:11;16.99;87.10
71801;HTU21D;59647;55.838;37.292;2023-08-24T09:28:37;16.98;87.28
71801;HTU21D;59647;55.838;37.292;2023-08-24T09:31:05;16.96;87.19
71801;HTU21D;59647;55.838;37.292;2023-08-24T09:33:31;16.92;86.99
71801;HTU21D;59647;55.838;37.292;2023-08-24T09:35:57;16.90;87.00
71801;HTU21D;59647;55.838;37.292;2023-08-24T09:38:27;16.93;87.13
71801;HTU21D;59647;55.838;37.292;2023-08-24T09:40:55;17.01;86.97
71801;HTU21D;59647;55.838;37.292;2023-08-24T09:43:22;17.01;85.43
71801;HTU21D;59647;55.838;37.292;2023-08-24T09:45:53;17.01;86.16
71801;HTU21D;59647;55.838;37.292;2023-08-24T09:48:19;17.13;86.64
71801;HTU21D;59647;55.838;37.292;2023-08-24T09:50:47;17.20;86.44
71801;HTU21D;59647;55.838;37.292;2023-08-24T09:53:19;17.30;86.25
71801;HTU21D;59647;55.838;37.292;2023-08-24T09:58:17;17.50;86.09
71801;HTU21D;59647;55.838;37.292;2023-08-24T10:00:46;17.54;85.45
71801;HTU21D;59647;55.838;37.292;2023-08-24T10:03:27;17.73;84.09
71801;HTU21D;59647;55.838;37.292;2023-08-24T10:05:55;17.83;85.11
71801;HTU21D;59647;55.838;37.292;2023-08-24T10:08:29;17.89;83.70
71801;HTU21D;59647;55.838;37.292;2023-08-24T10:10:58;17.99;84.74
71801;HTU21D;59647;55.838;37.292;2023-08-24T10:13:47;18.18;81.75
71801;HTU21D;59647;55.838;37.292;2023-08-24T10:16:14;18.43;81.75
71801;HTU21D;59647;55.838;37.292;2023-08-24T10:18:41;18.62;81.87
71801;HTU21D;59647;55.838;37.292;2023-08-24T10:21:08;18.89;81.86
71801;HTU21D;59647;55.838;37.292;2023-08-24T10:23:37;18.98;77.40
71801;HTU21D;59647;55.838;37.292;2023-08-24T10:26:06;19.01;81.90
71801;HTU21D;59647;55.838;37.292;2023-08-24T10:28:33;18.92;81.31
71801;HTU21D;59647;55.838;37.292;2023-08-24T10:30:59;18.84;81.27
71801;HTU21D;59647;55.838;37.292;2023-08-24T10:33:27;18.71;80.58
71801;HTU21D;59647;55.838;37.292;2023-08-24T10:35:53;18.61;81.27
71801;HTU21D;59647;55.838;37.292;2023-08-24T10:38:26;18.43;79.78
71801;HTU21D;59647;55.838;37.292;2023-08-24T10:40:53;18.42;81.46
71801;HTU21D;59647;55.838;37.292;2023-08-24T10:43:20;18.36;80.79
71801;HTU21D;59647;55.838;37.292;2023-08-24T10:48:24;18.21;81.03
71801;HTU21D;59647;55.838;37.292;2023-08-24T10:56:18;18.18;81.39
71801;HTU21D;59647;55.838;37.292;2023-08-24T10:58:45;18.07;80.59
71801;HTU21D;59647;55.838;37.292;2023-08-24T11:01:18;18.05;81.06
71801;HTU21D;59647;55.838;37.292;2023-08-24T11:03:52;18.00;80.78
71801;HTU21D;59647;55.838;37.292;2023-08-24T11:06:24;18.03;81.30
71801;HTU21D;59647;55.838;37.292;2023-08-24T11:09:08;18.02;80.72
71801;HTU21D;59647;55.838;37.292;2023-08-24T11:11:41;18.00;81.46
71801;HTU21D;59647;55.838;37.292;2023-08-24T11:16:41;18.21;79.85
71801;HTU21D;59647;55.838;37.292;2023-08-24T11:19:08;18.28;79.19
71801;HTU21D;59647;55.838;37.292;2023-08-24T11:21:36;18.36;77.70
71801;HTU21D;59647;55.838;37.292;2023-08-24T11:24:05;18.53;79.85
71801;HTU21D;59647;55.838;37.292;2023-08-24T11:26:31;18.68;79.83
71801;HTU21D;59647;55.838;37.292;2023-08-24T11:28:57;18.72;79.32
71801;HTU21D;59647;55.838;37.292;2023-08-24T11:31:23;18.59;76.60
71801;HTU21D;59647;55.838;37.292;2023-08-24T11:33:54;18.52;77.43
71801;HTU21D;59647;55.838;37.292;2023-08-24T11:36:24;18.49;78.40
71801;HTU21D;59647;55.838;37.292;2023-08-24T11:38:57;18.47;77.73
71801;HTU21D;59647;55.838;37.292;2023-08-24T11:41:23;18.44;78.02
71801;HTU21D;59647;55.838;37.292;2023-08-24T11:43:49;18.38;77.69
71801;HTU21D;59647;55.838;37.292;2023-08-24T11:46:18;18.41;78.21
71801;HTU21D;59647;55.838;37.292;2023-08-24T11:48:52;18.39;77.60
71801;HTU21D;59647;55.838;37.292;2023-08-24T11:51:18;18.36;76.26
71801;HTU21D;59647;55.838;37.292;2023-08-24T11:53:45;18.37;77.83
71801;HTU21D;59647;55.838;37.292;2023-08-24T11:56:12;18.33;77.95
71801;HTU21D;59647;55.838;37.292;2023-08-24T11:58:42;18.27;77.89
71801;HTU21D;59647;55.838;37.292;2023-08-24T12:01:09;18.24;77.50
71801;HTU21D;59647;55.838;37.292;2023-08-24T12:03:39;18.23;77.76
71801;HTU21D;59647;55.838;37.292;2023-08-24T12:06:15;18.22;76.92
71801;HTU21D;59647;55.838;37.292;2023-08-24T12:08:46;18.23;76.63
71801;HTU21D;59647;55.838;37.292;2023-08-24T12:11:17;18.32;77.42
71801;HTU21D;59647;55.838;37.292;2023-08-24T12:13:48;18.38;77.43
71801;HTU21D;59647;55.838;37.292;2023-08-24T12:16:18;18.42;76.19
71801;HTU21D;59647;55.838;37.292;2023-08-24T12:18:57;18.55;75.39
71801;HTU21D;59647;55.838;37.292;2023-08-24T12:21:30;18.66;77.07
71801;HTU21D;59647;55.838;37.292;2023-08-24T12:23:56;18.74;76.97
71801;HTU21D;59647;55.838;37.292;2023-08-24T12:26:22;18.83;76.95
71801;HTU21D;59647;55.838;37.292;2023-08-24T12:28:52;18.95;75.84
71801;HTU21D;59647;55.838;37.292;2023-08-24T12:31:18;18.87;73.04
71801;HTU21D;59647;55.838;37.292;2023-08-24T12:33:45;18.91;75.65
71801;HTU21D;59647;55.838;37.292;2023-08-24T12:36:12;19.00;76.29
71801;HTU21D;59647;55.838;37.292;2023-08-24T12:38:37;19.02;75.73
71801;HTU21D;59647;55.838;37.292;2023-08-24T12:41:08;19.00;75.60
71801;HTU21D;59647;55.838;37.292;2023-08-24T12:43:34;18.94;71.44
71801;HTU21D;59647;55.838;37.292;2023-08-24T12:46:00;19.01;74.49
71801;HTU21D;59647;55.838;37.292;2023-08-24T12:48:25;19.13;74.41
71801;HTU21D;59647;55.838;37.292;2023-08-24T12:50:51;19.17;74.60
71801;HTU21D;59647;55.838;37.292;2023-08-24T12:53:19;19.26;74.36
71801;HTU21D;59647;55.838;37.292;2023-08-24T12:55:45;19.33;74.73
71801;HTU21D;59647;55.838;37.292;2023-08-24T12:58:11;19.47;74.37
71801;HTU21D;59647;55.838;37.292;2023-08-24T13:00:37;19.62;74.44
71801;HTU21D;59647;55.838;37.292;2023-08-24T13:03:03;19.75;74.36
71801;HTU21D;59647;55.838;37.292;2023-08-24T13:05:29;19.68;72.66
71801;HTU21D;59647;55.838;37.292;2023-08-24T13:07:55;19.79;73.70
71801;HTU21D;59647;55.838;37.292;2023-08-24T13:10:22;19.85;69.21
71801;HTU21D;59647;55.838;37.292;2023-08-24T13:12:48;19.81;70.97
71801;HTU21D;59647;55.838;37.292;2023-08-24T13:15:15;19.72;72.64
71801;HTU21D;59647;55.838;37.292;2023-08-24T13:17:42;19.53;72.21
71801;HTU21D;59647;55.838;37.292;2023-08-24T13:20:08;19.40;71.48
71801;HTU21D;59647;55.838;37.292;2023-08-24T13:22:34;19.26;71.44
71801;HTU21D;59647;55.838;37.292;2023-08-24T13:24:59;19.24;71.90
71801;HTU21D;59647;55.838;37.292;2023-08-24T13:27:25;19.24;71.52
71801;HTU21D;59647;55.838;37.292;2023-08-24T13:29:51;19.21;72.55
71801;HTU21D;59647;55.838;37.292;2023-08-24T13:32:17;19.18;72.80
71801;HTU21D;59647;55.838;37.292;2023-08-24T13:34:46;19.18;73.08
71801;HTU21D;59647;55.838;37.292;2023-08-24T13:37:13;19.15;71.74
71801;HTU21D;59647;55.838;37.292;2023-08-24T13:39:39;19.11;72.74
71801;HTU21D;59647;55.838;37.292;2023-08-24T13:42:05;19.10;73.14
71801;HTU21D;59647;55.838;37.292;2023-08-24T13:44:31;19.16;73.03
71801;HTU21D;59647;55.838;37.292;2023-08-24T13:46:57;19.21;73.57
71801;HTU21D;59647;55.838;37.292;2023-08-24T13:49:23;19.12;72.68
71801;HTU21D;59647;55.838;37.292;2023-08-24T13:51:48;19.10;72.46
71801;HTU21D;59647;55.838;37.292;2023-08-24T13:54:18;19.07;73.11
71801;HTU21D;59647;55.838;37.292;2023-08-24T13:56:45;19.09;72.98
71801;HTU21D;59647;55.838;37.292;2023-08-24T13:59:12;19.16;73.25
71801;HTU21D;59647;55.838;37.292;2023-08-24T14:01:38;19.20;73.44
71801;HTU21D;59647;55.838;37.292;2023-08-24T14:04:06;19.12;72.61
71801;HTU21D;59647;55.838;37.292;2023-08-24T14:06:33;19.16;73.18
71801;HTU21D;59647;55.838;37.292;2023-08-24T14:09:00;19.21;72.99
71801;HTU21D;59647;55.838;37.292;2023-08-24T14:11:28;19.27;73.18
71801;HTU21D;59647;55.838;37.292;2023-08-24T14:13:54;19.33;73.23
71801;HTU21D;59647;55.838;37.292;2023-08-24T14:16:20;19.37;72.76
71801;HTU21D;59647;55.838;37.292;2023-08-24T14:18:47;19.42;72.95
71801;HTU21D;59647;55.838;37.292;2023-08-24T14:21:13;19.50;72.82
71801;HTU21D;59647;55.838;37.292;2023-08-24T14:23:40;19.58;72.62
71801;HTU21D;59647;55.838;37.292;2023-08-24T14:26:06;19.63;72.69
71801;HTU21D;59647;55.838;37.292;2023-08-24T14:28:54;19.67;71.66
71801;HTU21D;59647;55.838;37.292;2023-08-24T14:31:26;19.70;71.74
71801;HTU21D;59647;55.838;37.292;2023-08-24T14:33:52;19.75;72.54
71801;HTU21D;59647;55.838;37.292;2023-08-24T14:36:19;19.63;72.39
71801;HTU21D;59647;55.838;37.292;2023-08-24T14:38:46;19.62;72.16
71801;HTU21D;59647;55.838;37.292;2023-08-24T14:41:13;19.57;72.03
71801;HTU21D;59647;55.838;37.292;2023-08-24T14:43:40;19.53;71.10
71801;HTU21D;59647;55.838;37.292;2023-08-24T14:46:07;19.45;71.76
71801;HTU21D;59647;55.838;37.292;2023-08-24T14:48:33;19.48;72.32
71801;HTU21D;59647;55.838;37.292;2023-08-24T14:50:59;19.53;72.56
71801;HTU21D;59647;55.838;37.292;2023-08-24T14:53:25;19.57;72.46
71801;HTU21D;59647;55.838;37.292;2023-08-24T14:55:56;19.61;72.31
71801;HTU21D;59647;55.838;37.292;2023-08-24T14:58:24;19.65;72.44
71801;HTU21D;59647;55.838;37.292;2023-08-24T15:00:52;19.66;72.22
71801;HTU21D;59647;55.838;37.292;2023-08-24T15:03:19;19.62;72.41
71801;HTU21D;59647;55.838;37.292;2023-08-24T15:05:55;19.61;72.12
71801;HTU21D;59647;55.838;37.292;2023-08-24T15:08:21;19.63;72.21
71801;HTU21D;59647;55.838;37.292;2023-08-24T15:10:48;19.65;71.93
71801;HTU21D;59647;55.838;37.292;2023-08-24T15:13:14;19.67;72.32
71801;HTU21D;59647;55.838;37.292;2023-08-24T15:15:40;19.66;72.47
71801;HTU21D;59647;55.838;37.292;2023-08-24T15:18:06;19.65;72.13
71801;HTU21D;59647;55.838;37.292;2023-08-24T15:20:32;19.65;72.12
71801;HTU21D;59647;55.838;37.292;2023-08-24T15:22:59;19.65;72.29
71801;HTU21D;59647;55.838;37.292;2023-08-24T15:25:26;19.66;72.54
71801;HTU21D;59647;55.838;37.292;2023-08-24T15:27:52;19.68;72.41